createdAt,value
2023-01-18T00:02:31.054Z,-2.85
2023-01-18T00:12:33.945Z,-2.82
2023-01-18T00:22:36.282Z,-2.65
2023-01-18T00:32:38.796Z,-2.53
2023-01-18T00:43:00.890Z,-2.47
2023-01-18T00:53:03.408Z,-2.36
2023-01-18T01:03:05.855Z,-2.23
2023-01-18T01:13:28.265Z,-2.12
2023-01-18T01:23:48.959Z,-1.97
2023-01-18T01:33:51.997Z,-1.82
2023-01-18T01:43:57.014Z,-1.64
2023-01-18T01:54:02.248Z,-1.56
2023-01-18T02:04:05.152Z,-1.51
2023-01-18T02:14:12.888Z,-1.48
2023-01-18T02:24:30.834Z,-1.48
2023-01-18T02:34:43.694Z,-1.44
2023-01-18T02:45:05.888Z,-1.36
2023-01-18T02:55:20.024Z,-1.41
2023-01-18T03:05:24.717Z,-1.35
2023-01-18T03:15:27.112Z,-1.23
2023-01-18T03:25:33.420Z,-1.18
2023-01-18T03:35:37.024Z,-1.13
2023-01-18T03:45:43.192Z,-1.14
2023-01-18T03:55:56.669Z,-1.11
2023-01-18T06:05:12.132Z,-3.05
2023-01-18T06:15:15.774Z,-2.18
2023-01-18T06:25:18.335Z,-1.72
2023-01-18T06:35:21.932Z,-1.41
2023-01-18T06:45:26.056Z,-1.14
2023-01-18T06:55:28.411Z,-0.96
2023-01-18T07:05:31.233Z,-0.84
2023-01-18T07:15:34.645Z,-0.71
2023-01-18T07:25:37.002Z,-0.61
2023-01-18T07:35:39.344Z,-0.51
2023-01-18T07:45:42.997Z,-0.38
2023-01-18T07:55:45.405Z,-0.28
2023-01-18T08:05:48.077Z,-0.11
2023-01-18T08:15:50.671Z,0.03
2023-01-18T08:25:53.422Z,0.27
2023-01-18T08:35:55.782Z,0.46
2023-01-18T08:45:58.215Z,0.68
2023-01-18T08:56:04.922Z,0.89
2023-01-18T09:06:12.916Z,1.15
2023-01-18T09:16:15.554Z,1.52
2023-01-18T09:26:20.804Z,1.62
2023-01-18T09:36:26.968Z,1.60
2023-01-18T09:46:34.697Z,1.45
2023-01-18T09:56:52.479Z,1.62
2023-01-18T10:07:00.214Z,1.83
2023-01-18T10:17:09.149Z,1.96
2023-01-18T10:27:50.197Z,2.14
2023-01-18T10:37:56.741Z,2.27
2023-01-18T10:48:19.603Z,2.23
2023-01-18T10:58:31.340Z,2.45
2023-01-18T11:08:35.889Z,2.43
2023-01-18T11:18:39.047Z,2.30
2023-01-18T11:29:01.894Z,2.47
2023-01-18T11:39:25.352Z,2.70
2023-01-18T11:49:45.752Z,2.64
2023-01-18T11:59:49.279Z,2.50
2023-01-18T12:09:52.908Z,2.56
2023-01-18T12:20:01.432Z,2.40
2023-01-18T12:30:05.301Z,2.47
2023-01-18T12:40:08.023Z,2.58
2023-01-18T12:50:23.254Z,2.55
2023-01-18T13:00:35.939Z,2.46
2023-01-18T13:10:38.913Z,2.27
2023-01-18T13:21:24.510Z,2.16
2023-01-18T13:31:33.106Z,2.14
2023-01-18T13:41:36.088Z,2.08
2023-01-18T13:51:41.351Z,2.06
2023-01-18T14:01:46.034Z,2.01
2023-01-18T14:11:58.184Z,2.03
2023-01-18T14:22:28.160Z,1.93
2023-01-18T14:32:39.802Z,1.76
2023-01-18T14:42:57.655Z,1.62
2023-01-18T14:53:01.306Z,1.49
2023-01-18T15:03:13.004Z,1.37
2023-01-18T15:13:18.644Z,1.24
2023-01-18T15:23:22.105Z,1.19
2023-01-18T15:33:26.161Z,1.07
2023-01-18T15:43:42.224Z,0.94
2023-01-18T15:53:52.567Z,0.85
2023-01-18T16:04:05.811Z,0.79
2023-01-18T16:14:27.946Z,0.68
2023-01-18T16:24:36.678Z,0.61
2023-01-18T16:34:39.029Z,0.39
2023-01-18T16:44:44.634Z,0.34
2023-01-18T16:54:47.049Z,0.31
2023-01-18T17:04:49.700Z,0.24
2023-01-18T17:14:52.182Z,0.17
2023-01-18T17:24:54.629Z,0.24
2023-01-18T17:34:57.288Z,0.16
2023-01-18T17:45:03.514Z,0.06
2023-01-18T17:55:08.687Z,0.21
2023-01-18T18:05:11.074Z,-0.07
2023-01-18T18:15:13.950Z,0.08
2023-01-18T18:25:16.553Z,0.06
2023-01-18T18:35:25.587Z,0.16
2023-01-18T18:45:30.137Z,0.42
2023-01-18T18:55:33.293Z,0.37
2023-01-18T19:05:36.170Z,0.31
2023-01-18T19:15:39.087Z,0.24
2023-01-18T19:25:41.602Z,0.20
2023-01-18T19:35:45.999Z,0.16
2023-01-18T19:45:48.473Z,0.15
2023-01-18T19:56:06.393Z,0.05
2023-01-18T20:06:18.607Z,-0.01
2023-01-18T20:16:21.208Z,0.03
2023-01-18T20:26:35.765Z,0.01
2023-01-18T20:36:38.742Z,0.09
2023-01-18T20:46:41.144Z,0.07
2023-01-18T20:56:43.487Z,0.06
2023-01-18T21:06:46.744Z,-0.01
2023-01-18T21:16:49.159Z,-0.02
2023-01-18T21:26:51.506Z,-0.03
2023-01-18T21:40:10.753Z,-0.15
2023-01-18T21:50:31.911Z,-0.14
2023-01-18T22:00:37.860Z,-0.14
2023-01-18T22:10:40.239Z,-0.19
2023-01-18T22:20:42.861Z,-0.18
2023-01-18T22:30:46.984Z,-0.12
2023-01-18T22:40:49.502Z,-0.05
2023-01-18T22:50:53.939Z,0.02
2023-01-18T23:00:56.801Z,0.01
2023-01-18T23:10:59.171Z,-0.14
2023-01-18T23:21:01.639Z,-0.22
2023-01-18T23:31:04.776Z,-0.19
2023-01-18T23:41:25.709Z,-0.30
2023-01-18T23:51:46.294Z,-0.83
